Página principal
METAR-TAF:

METAR-TAF

Aeroportos :

Kuala Lumpur, Malásia

Aeroporto Internacional de Kuala Lumpur

latitude: 02-44N, longitude: 101-42E, altura: 21 m

Observação actual do tempo

O boletim foi feito há 34 minutos, às 18:30 UTC
Vento 3 kt com direcção variável
Temperatura 26°C
Humidade 89%
Pressão 1010 hPa
Visibilidade: 8000 m
Poucas nuvensa uma altura de 3000 ft
Nuvens fragmentadasa uma altura de 28000 ft

METAR: WMKK 281830Z VRB03KT 8000 FEW030 BKN280 26/24 Q1010 NOSIG

Hora: 03:04 (19:04 UTC)

Previsão

O boletim foi feito há 2 horas e 4 minutos, às 17:00 UTC
Previsão válida de 28 às 18 UTC a 30 às 00 UTC
Vento 5 kt de su-sudeste
Visibilidade 10 km ou mais
Poucas nuvensa uma altura de 2000 ft
Nuvens dispersasa uma altura de 14000 ft
Nuvens fragmentadasa uma altura de 28000 ft

TAF: WMKK 281700Z 2818/3000 15005KT 9999 FEW020 SCT140 BKN280

Observações e previsões do tempo de mais de 4000 aeroportos (mensagens METAR e TAF).

As estações disponíveis são os pontos amarelos e vermelhos sobre o mapa.

Mova o rato sobre o mapa para ver o nome da estação.

Depois clique no ponto para visualizar as observações e previsões meteorológicas.

Para alterar o mapa : clique nos botões verdes com uma cruz preta para aumentar o zoom; no botão verde com uma pitada de zoom; ou nas setas verdes para mapas adjacentes.


METAR-TAF: